Time;durP1;ratioP1;P1;durP2;ratioP2;P2;SDS_P1;SDS_P2;PMS_P1;PMS_P2;Temp;Humidity;BMP_temperature;BMP_pressure;BME280_temperature;BME280_humidity;BME280_pressure;Samples;Min_cycle;Max_cycle;Signal;HPM_P1;HPM_P2
2023/10/27 00:00:26;;;;;;;6.38;3.10;;;;;;;16.96;60.92;93962.63;5002451;28;20215;-73
2023/10/27 00:02:51;;;;;;;7.82;3.13;;;;;;;16.94;60.95;93959.38;5002590;28;20209;-73
2023/10/27 00:05:16;;;;;;;5.88;2.67;;;;;;;16.99;60.71;93962.19;5001099;28;20231;-73
2023/10/27 00:07:42;;;;;;;8.05;2.95;;;;;;;16.95;61.01;93961.03;4998556;28;20227;-73
2023/10/27 00:10:07;;;;;;;6.57;2.67;;;;;;;16.97;60.89;93965.09;5007309;28;20211;-73
2023/10/27 00:12:33;;;;;;;6.47;2.75;;;;;;;16.95;61.12;93958.38;5000990;28;20179;-73
2023/10/27 00:14:59;;;;;;;4.28;3.03;;;;;;;16.88;61.30;93960.25;4999032;28;20211;-73
2023/10/27 00:17:24;;;;;;;6.38;2.70;;;;;;;16.90;61.12;93971.47;4998018;28;20227;-73
2023/10/27 00:19:50;;;;;;;5.38;2.67;;;;;;;17.05;60.39;93966.63;5005846;28;20215;-73
2023/10/27 00:22:15;;;;;;;5.05;2.90;;;;;;;16.97;60.87;93961.59;5007954;28;20249;-73
2023/10/27 00:24:41;;;;;;;5.93;2.88;;;;;;;16.93;60.96;93955.91;5001436;28;20241;-73
2023/10/27 00:27:06;;;;;;;7.70;2.67;;;;;;;16.66;61.93;93960.59;4999109;28;20187;-72
2023/10/27 00:29:32;;;;;;;11.63;2.55;;;;;;;16.64;61.80;93959.97;4999169;28;20276;-73
2023/10/27 00:31:57;;;;;;;5.82;3.17;;;;;;;16.82;61.36;93953.97;4999796;28;20211;-74
2023/10/27 00:34:22;;;;;;;5.63;3.10;;;;;;;16.85;61.01;93960.69;4998223;28;20223;-73
2023/10/27 00:36:48;;;;;;;4.10;2.10;;;;;;;16.79;61.23;93965.03;5000624;28;20239;-74
2023/10/27 00:39:13;;;;;;;5.00;2.67;;;;;;;16.79;61.40;93950.94;5002843;28;20186;-74
2023/10/27 00:41:39;;;;;;;7.57;2.72;;;;;;;16.82;61.32;93953.97;5002111;28;20272;-74
2023/10/27 00:44:04;;;;;;;6.25;2.67;;;;;;;16.78;61.65;93936.03;4999846;28;20230;-74
2023/10/27 00:46:30;;;;;;;4.28;2.88;;;;;;;16.72;61.72;93941.13;5001315;28;20230;-74
2023/10/27 00:48:56;;;;;;;6.45;2.92;;;;;;;16.80;61.31;93944.59;5000438;28;20226;-72
2023/10/27 00:51:22;;;;;;;5.43;2.50;;;;;;;16.92;60.76;93950.81;5005740;28;20195;-72
2023/10/27 00:53:50;;;;;;;5.13;2.40;;;;;;;16.87;61.27;93932.09;4998608;28;20175;-73
2023/10/27 00:56:16;;;;;;;6.07;3.05;;;;;;;16.89;61.25;93937.97;4999666;28;20226;-73
2023/10/27 00:58:42;;;;;;;6.13;2.65;;;;;;;16.79;61.34;93938.47;4997303;28;20227;-72
2023/10/27 01:01:13;;;;;;;6.90;2.75;;;;;;;16.90;61.20;93944.94;5001349;28;20225;-72
2023/10/27 01:03:38;;;;;;;7.05;3.08;;;;;;;16.74;61.60;93941.75;4994203;28;20219;-73
2023/10/27 01:06:04;;;;;;;8.77;2.72;;;;;;;16.80;61.48;93953.38;5006965;28;20229;-74
2023/10/27 01:08:29;;;;;;;7.10;2.50;;;;;;;16.84;61.39;93957.22;5000862;28;20227;-74
2023/10/27 01:10:55;;;;;;;7.30;3.05;;;;;;;16.73;61.55;93964.03;4999600;28;20243;-74
2023/10/27 01:13:20;;;;;;;5.95;3.00;;;;;;;16.64;61.69;93967.94;4997901;28;20215;-73
2023/10/27 01:15:46;;;;;;;7.15;2.92;;;;;;;16.69;61.67;93960.16;5000728;28;20314;-73
2023/10/27 01:18:11;;;;;;;7.47;2.90;;;;;;;16.66;61.99;93947.31;4999521;28;20187;-73
2023/10/27 01:20:36;;;;;;;8.63;2.75;;;;;;;16.72;61.91;93948.28;5000534;28;20211;-73
2023/10/27 01:23:03;;;;;;;7.70;3.08;;;;;;;16.74;61.94;93962.16;4999640;28;20785;-73
2023/10/27 01:25:28;;;;;;;6.95;3.25;;;;;;;16.59;62.57;93978.38;4998876;28;20227;-73
2023/10/27 01:27:54;;;;;;;7.55;3.20;;;;;;;16.44;62.91;93984.00;5000364;28;20269;-73
2023/10/27 01:30:19;;;;;;;11.05;3.38;;;;;;;16.52;62.63;93977.63;4998169;28;20205;-73
2023/10/27 01:32:45;;;;;;;8.93;3.47;;;;;;;16.57;62.74;93977.78;4997410;28;20195;-72
2023/10/27 01:35:11;;;;;;;7.78;3.55;;;;;;;16.61;62.74;93964.91;5000432;28;20219;-73
2023/10/27 01:37:36;;;;;;;8.68;3.30;;;;;;;16.51;63.02;93965.38;5005356;28;20219;-73
2023/10/27 01:40:03;;;;;;;5.75;3.22;;;;;;;16.49;63.26;93952.34;5000779;28;20223;-73
2023/10/27 01:42:29;;;;;;;7.18;3.53;;;;;;;16.51;63.40;93973.34;5001666;28;20528;-73
2023/10/27 01:44:54;;;;;;;6.13;3.33;;;;;;;16.56;63.34;93970.84;5000914;28;20191;-75
2023/10/27 01:47:20;;;;;;;6.72;3.30;;;;;;;16.63;63.20;93963.69;4999997;28;20718;-75
2023/10/27 01:49:46;;;;;;;8.82;3.78;;;;;;;16.57;63.71;93964.50;5002469;28;20218;-74
2023/10/27 01:52:11;;;;;;;9.43;3.30;;;;;;;16.65;63.72;93961.63;4998607;28;20230;-72
2023/10/27 01:54:37;;;;;;;7.70;3.80;;;;;;;16.56;64.02;93959.44;5000794;28;20220;-72
2023/10/27 01:57:02;;;;;;;6.45;3.72;;;;;;;16.51;64.47;93960.06;5000320;28;20209;-72
2023/10/27 01:59:29;;;;;;;13.05;4.10;;;;;;;16.27;65.36;93959.78;4996887;28;20234;-72
2023/10/27 02:01:54;;;;;;;10.05;3.60;;;;;;;16.33;65.47;93947.50;4996517;28;20255;-72
2023/10/27 02:04:20;;;;;;;13.25;4.35;;;;;;;16.45;64.90;93955.63;5002859;28;20293;-72
2023/10/27 02:06:46;;;;;;;6.97;4.15;;;;;;;16.49;64.82;93951.50;5007839;28;20223;-72
2023/10/27 02:09:12;;;;;;;7.60;4.10;;;;;;;16.45;64.96;93947.66;5003926;28;20198;-72
2023/10/27 02:11:37;;;;;;;9.32;3.78;;;;;;;16.52;64.73;93948.44;5000789;28;20219;-71
2023/10/27 02:14:03;;;;;;;14.20;4.15;;;;;;;16.50;64.98;93951.31;5006527;28;20237;-72
2023/10/27 02:16:28;;;;;;;7.72;3.50;;;;;;;16.53;64.89;93950.06;4998950;28;20279;-71
2023/10/27 02:18:53;;;;;;;7.15;3.63;;;;;;;16.25;65.90;93955.72;5003190;28;20214;-71
2023/10/27 02:21:19;;;;;;;8.70;3.50;;;;;;;15.99;66.94;93941.59;5003668;28;20918;-72
2023/10/27 02:23:44;;;;;;;9.63;3.60;;;;;;;16.24;66.23;93940.84;5000334;28;20310;-72
2023/10/27 02:26:10;;;;;;;11.00;4.07;;;;;;;16.20;66.35;93932.50;4999206;28;20223;-72
2023/10/27 02:28:37;;;;;;;6.38;4.03;;;;;;;16.35;66.04;93944.66;5009908;28;20397;-72
2023/10/27 02:31:02;;;;;;;6.60;4.15;;;;;;;16.43;65.40;93931.94;4999767;28;20223;-72
2023/10/27 02:33:28;;;;;;;9.38;4.00;;;;;;;16.24;66.09;93932.88;4987116;28;20191;-72
2023/10/27 02:35:53;;;;;;;8.30;3.60;;;;;;;16.36;66.05;93936.50;5004860;28;20277;-72
2023/10/27 02:38:19;;;;;;;6.68;3.80;;;;;;;16.38;65.75;93928.31;5005400;28;20232;-71
2023/10/27 02:40:44;;;;;;;7.68;3.95;;;;;;;16.42;65.65;93927.69;5004722;28;20307;-72
2023/10/27 02:43:11;;;;;;;10.10;4.20;;;;;;;16.39;65.81;93925.47;5006135;28;20231;-74
2023/10/27 02:45:36;;;;;;;11.95;4.30;;;;;;;16.36;65.76;93923.25;5001581;28;20286;-74
2023/10/27 02:48:02;;;;;;;9.02;4.43;;;;;;;16.36;65.94;93935.66;5003462;28;20195;-74
2023/10/27 02:50:27;;;;;;;8.90;4.40;;;;;;;16.38;65.68;93923.81;5004476;28;20235;-73
2023/10/27 02:52:53;;;;;;;9.85;4.40;;;;;;;16.32;66.28;93925.50;4995659;28;20220;-73
2023/10/27 02:55:18;;;;;;;5.53;3.40;;;;;;;16.42;65.87;93919.72;5004716;28;20227;-73
2023/10/27 02:57:45;;;;;;;6.72;4.15;;;;;;;16.44;65.99;93938.91;5001538;28;20215;-73
2023/10/27 03:00:10;;;;;;;9.13;4.00;;;;;;;16.31;66.09;93939.78;4999117;28;20314;-72
2023/10/27 03:02:36;;;;;;;10.93;3.85;;;;;;;16.36;65.95;93931.19;5002767;28;20311;-72
2023/10/27 03:05:01;;;;;;;8.13;4.00;;;;;;;16.40;65.68;93940.34;5000305;28;20227;-72
2023/10/27 03:07:27;;;;;;;8.07;3.55;;;;;;;16.38;65.90;93931.78;5004840;28;20242;-72
2023/10/27 03:09:52;;;;;;;7.47;3.85;;;;;;;16.28;66.12;93940.22;5001967;28;20215;-72
2023/10/27 03:12:19;;;;;;;8.82;3.78;;;;;;;16.40;65.89;93932.38;5002348;28;20183;-72
2023/10/27 03:14:44;;;;;;;9.35;3.83;;;;;;;16.31;65.86;93937.13;5005310;28;20179;-72
2023/10/27 03:17:10;;;;;;;9.45;4.30;;;;;;;16.19;66.54;93932.72;5001594;28;20242;-73
2023/10/27 03:19:35;;;;;;;10.07;4.30;;;;;;;16.21;66.63;93923.53;5001361;28;20222;-72
2023/10/27 03:22:02;;;;;;;9.55;4.50;;;;;;;16.37;66.12;93934.66;5002284;28;20234;-72
2023/10/27 03:24:27;;;;;;;7.65;3.53;;;;;;;16.38;65.91;93945.03;4999316;28;20190;-72
2023/10/27 03:26:53;;;;;;;14.80;4.22;;;;;;;16.28;66.09;93926.97;5000467;28;20183;-72
2023/10/27 03:29:18;;;;;;;10.02;4.22;;;;;;;16.25;66.27;93938.00;4999686;28;20227;-73
2023/10/27 03:31:44;;;;;;;9.13;4.07;;;;;;;16.35;66.06;93939.34;4998064;28;20219;-73
2023/10/27 03:34:09;;;;;;;12.77;4.35;;;;;;;16.25;66.23;93924.72;4997218;28;20255;-74
2023/10/27 03:36:34;;;;;;;8.63;4.47;;;;;;;16.30;65.96;93916.13;5000157;28;20222;-74
2023/10/27 03:39:00;;;;;;;11.40;3.97;;;;;;;16.35;65.85;93918.13;5006474;28;20274;-74
2023/10/27 03:41:25;;;;;;;9.70;4.60;;;;;;;16.34;65.89;93916.53;5004125;28;20280;-75
2023/10/27 03:43:52;;;;;;;10.25;4.32;;;;;;;16.35;65.95;93912.81;4998165;28;20227;-75
2023/10/27 03:46:17;;;;;;;7.05;3.78;;;;;;;16.25;65.98;93913.28;4996860;28;20226;-73
2023/10/27 03:48:44;;;;;;;6.97;3.78;;;;;;;16.30;66.02;93927.56;4986968;28;20219;-72
2023/10/27 03:51:10;;;;;;;7.88;3.88;;;;;;;16.29;65.87;93917.97;4997124;28;20191;-73
2023/10/27 03:53:35;;;;;;;8.00;4.10;;;;;;;16.40;65.54;93905.03;5001248;28;20227;-74
2023/10/27 03:56:00;;;;;;;7.93;3.45;;;;;;;16.36;65.44;93911.78;5001928;28;20223;-74
2023/10/27 03:58:26;;;;;;;11.43;4.20;;;;;;;16.39;65.26;93898.94;4996255;28;20223;-74
2023/10/27 04:00:52;;;;;;;9.15;3.58;;;;;;;16.38;65.33;93901.78;5002355;28;20223;-71
2023/10/27 04:03:17;;;;;;;8.65;4.30;;;;;;;16.18;66.07;93900.09;5002959;28;20203;-71
2023/10/27 04:05:43;;;;;;;13.43;4.43;;;;;;;16.18;66.43;93908.03;5000019;28;20214;-71
2023/10/27 04:08:08;;;;;;;10.80;4.15;;;;;;;16.15;66.50;93897.06;4999542;28;20293;-72
2023/10/27 04:10:37;;;;;;;9.82;3.90;;;;;;;16.23;66.08;93889.66;4994695;28;20273;-72
2023/10/27 04:13:04;;;;;;;11.60;4.53;;;;;;;16.26;65.80;93878.59;4996194;28;20215;-72
2023/10/27 04:15:29;;;;;;;7.57;4.20;;;;;;;16.17;66.04;93885.22;4999103;28;20195;-73
2023/10/27 04:17:55;;;;;;;11.93;3.90;;;;;;;16.29;65.45;93880.03;5000946;28;20183;-72
2023/10/27 04:20:20;;;;;;;8.70;4.43;;;;;;;16.27;65.39;93872.25;5002810;28;20282;-71
2023/10/27 04:22:46;;;;;;;9.07;4.35;;;;;;;16.26;65.65;93880.44;4997811;28;20251;-71
2023/10/27 04:25:12;;;;;;;11.48;3.75;;;;;;;16.25;65.58;93855.78;5006066;28;20225;-72
2023/10/27 04:27:38;;;;;;;13.48;4.70;;;;;;;16.27;65.53;93847.59;4998926;28;20223;-72
2023/10/27 04:30:07;;;;;;;10.77;4.50;;;;;;;16.22;65.42;93842.09;4994935;28;20307;-70
2023/10/27 04:32:36;;;;;;;8.93;4.60;;;;;;;16.16;65.93;93846.44;4998019;28;20212;-73
2023/10/27 04:35:03;;;;;;;8.38;4.20;;;;;;;16.25;65.65;93850.47;4999387;28;20223;-72
2023/10/27 04:37:30;;;;;;;8.82;3.70;;;;;;;16.20;65.77;93852.09;4998280;28;20354;-73
2023/10/27 04:39:56;;;;;;;7.78;4.28;;;;;;;16.14;66.27;93858.28;4995977;28;20253;-71
2023/10/27 04:42:22;;;;;;;9.85;4.25;;;;;;;16.04;66.68;93864.06;5000220;28;20234;-73
2023/10/27 04:44:48;;;;;;;11.18;4.18;;;;;;;16.03;66.93;93867.72;5004987;28;20219;-74
2023/10/27 04:47:13;;;;;;;12.18;5.03;;;;;;;15.82;67.48;93867.06;4995936;28;20247;-73
2023/10/27 04:49:39;;;;;;;7.47;4.88;;;;;;;15.97;67.18;93868.59;5002775;28;20230;-72
2023/10/27 04:52:05;;;;;;;15.93;4.97;;;;;;;16.12;66.52;93870.94;5001372;28;20207;-74
2023/10/27 04:54:31;;;;;;;13.05;5.40;;;;;;;16.01;67.04;93865.31;4985727;28;20302;-73
2023/10/27 04:56:56;;;;;;;14.65;5.25;;;;;;;16.03;66.95;93862.44;4997091;28;20293;-72
2023/10/27 04:59:22;;;;;;;11.52;5.05;;;;;;;16.10;66.60;93861.38;4996197;28;20223;-72
2023/10/27 05:01:47;;;;;;;14.02;5.35;;;;;;;16.12;66.58;93860.31;4999452;28;20575;-73
2023/10/27 05:04:13;;;;;;;11.07;5.55;;;;;;;16.06;66.94;93851.38;4995554;28;20233;-74
2023/10/27 05:06:38;;;;;;;15.73;4.70;;;;;;;16.05;66.82;93863.84;5006513;28;20229;-75
2023/10/27 05:09:04;;;;;;;14.30;5.05;;;;;;;15.92;66.95;93863.13;4998262;28;20183;-73
2023/10/27 05:11:29;;;;;;;9.45;4.38;;;;;;;15.93;67.20;93856.78;4996194;28;20223;-75
2023/10/27 05:13:54;;;;;;;9.05;4.22;;;;;;;16.00;66.75;93860.22;5003487;28;20222;-71
2023/10/27 05:16:20;;;;;;;13.55;5.45;;;;;;;16.04;66.57;93870.19;4995097;28;20226;-71
2023/10/27 05:18:45;;;;;;;10.50;5.40;;;;;;;16.11;66.26;93854.22;4997576;28;20301;-72
2023/10/27 05:21:17;;;;;;;11.65;5.18;;;;;;;16.16;66.16;93856.22;4998740;28;20194;-72
2023/10/27 05:23:43;;;;;;;11.00;4.65;;;;;;;16.25;65.58;93861.06;5006221;28;20241;-73
2023/10/27 05:26:09;;;;;;;16.83;5.97;;;;;;;16.23;65.85;93857.00;5005024;28;20223;-72
2023/10/27 05:28:34;;;;;;;12.40;5.65;;;;;;;16.23;65.84;93860.47;4999327;28;20231;-72
2023/10/27 05:31:00;;;;;;;12.98;5.25;;;;;;;16.27;65.36;93843.09;5003742;28;20219;-73
2023/10/27 05:33:25;;;;;;;11.38;4.10;;;;;;;16.19;65.69;93840.69;5003179;28;20278;-72
2023/10/27 05:35:51;;;;;;;11.63;5.10;;;;;;;16.39;65.59;93855.69;4993280;28;20184;-73
2023/10/27 05:38:18;;;;;;;15.45;5.00;;;;;;;16.34;65.57;93852.84;4997771;28;20322;-73
2023/10/27 05:40:43;;;;;;;12.57;5.05;;;;;;;16.28;65.52;93839.41;5006776;28;20231;-74
2023/10/27 05:43:09;;;;;;;17.38;5.35;;;;;;;16.43;64.82;93848.91;5011179;28;20276;-73
2023/10/27 05:45:34;;;;;;;12.85;5.03;;;;;;;16.46;64.55;93846.59;5003640;28;20225;-73
2023/10/27 05:47:59;;;;;;;11.15;4.38;;;;;;;16.47;64.62;93858.88;5002081;28;20282;-71
2023/10/27 05:50:25;;;;;;;12.23;4.07;;;;;;;16.46;63.93;93862.53;4999987;28;20243;-74
2023/10/27 05:52:50;;;;;;;8.93;4.03;;;;;;;16.52;64.10;93860.88;5001349;28;20225;-79
2023/10/27 05:55:16;;;;;;;8.45;4.25;;;;;;;16.67;63.69;93856.03;5006700;28;20306;-79
2023/10/27 05:57:41;;;;;;;9.88;4.25;;;;;;;16.83;63.63;93861.84;4999434;28;20298;-76
2023/10/27 06:00:07;;;;;;;11.85;4.18;;;;;;;16.71;63.59;93875.00;5007181;28;20194;-78
2023/10/27 06:02:33;;;;;;;7.85;4.07;;;;;;;16.81;63.37;93885.97;5001611;28;20311;-78
2023/10/27 06:04:58;;;;;;;14.00;5.65;;;;;;;16.64;63.32;93882.22;5003942;28;20309;-78
2023/10/27 06:07:24;;;;;;;14.07;5.32;;;;;;;16.74;63.67;93901.94;4996884;28;20218;-79
2023/10/27 06:09:49;;;;;;;12.32;4.93;;;;;;;16.70;63.83;93894.59;5003904;28;20219;-77
2023/10/27 06:12:15;;;;;;;13.25;4.65;;;;;;;16.69;64.04;93898.28;5002528;28;20196;-77
2023/10/27 06:14:44;;;;;;;11.75;5.18;;;;;;;16.84;63.93;93905.94;4997344;28;20220;-77
2023/10/27 06:17:12;;;;;;;10.57;5.00;;;;;;;16.72;64.12;93897.88;4999244;28;20235;-79
2023/10/27 06:19:37;;;;;;;12.77;4.45;;;;;;;16.68;64.09;93900.16;5006376;28;20277;-78
2023/10/27 06:22:04;;;;;;;7.85;4.10;;;;;;;16.89;63.64;93906.94;4994932;28;20214;-77
2023/10/27 06:24:29;;;;;;;9.88;3.83;;;;;;;16.98;62.76;93897.66;4999350;28;20214;-78
2023/10/27 06:26:55;;;;;;;8.32;4.13;;;;;;;17.08;62.33;93896.34;4996860;28;20210;-73
2023/10/27 06:29:21;;;;;;;11.32;4.32;;;;;;;17.02;62.38;93892.72;5003436;28;20238;-72
2023/10/27 06:31:47;;;;;;;9.77;4.60;;;;;;;17.16;62.18;93912.00;4994205;28;20226;-72
2023/10/27 06:34:12;;;;;;;18.08;6.47;;;;;;;17.15;61.95;93913.84;4994541;28;20223;-72
2023/10/27 06:36:38;;;;;;;11.25;5.20;;;;;;;17.20;62.00;93898.06;4998140;28;20223;-71
2023/10/27 06:39:03;;;;;;;13.75;5.95;;;;;;;17.10;62.45;93897.75;4998426;28;20218;-71
2023/10/27 06:41:29;;;;;;;10.18;4.43;;;;;;;17.22;62.17;93891.72;4996368;28;20235;-71
2023/10/27 06:43:54;;;;;;;11.13;4.78;;;;;;;17.25;61.85;93878.00;4997987;28;20249;-70
2023/10/27 06:46:19;;;;;;;10.52;5.20;;;;;;;17.09;62.61;93892.66;5002597;28;20226;-73
2023/10/27 06:48:46;;;;;;;11.38;5.03;;;;;;;17.16;62.24;93894.22;4997582;28;20229;-74
2023/10/27 06:51:11;;;;;;;12.68;4.78;;;;;;;17.17;61.85;93871.94;4996450;28;20186;-77
2023/10/27 06:53:37;;;;;;;8.23;4.25;;;;;;;17.22;61.61;93895.19;4993567;28;20225;-74
2023/10/27 06:56:03;;;;;;;7.25;3.85;;;;;;;17.24;61.37;93881.69;5000734;28;20222;-71
2023/10/27 06:58:28;;;;;;;10.15;4.70;;;;;;;17.24;61.49;93874.53;4996104;28;20277;-77
2023/10/27 07:00:54;;;;;;;11.00;4.32;;;;;;;17.37;61.35;93885.03;5000176;28;20230;-75
2023/10/27 07:03:19;;;;;;;7.72;4.78;;;;;;;17.44;61.28;93884.94;4997723;28;20203;-77
2023/10/27 07:05:45;;;;;;;10.40;4.53;;;;;;;17.62;60.86;93892.91;5004932;28;20201;-76
2023/10/27 07:08:10;;;;;;;9.65;4.18;;;;;;;17.34;61.31;93893.41;4994368;28;20323;-72
2023/10/27 07:10:42;;;;;;;12.70;5.50;;;;;;;17.40;61.60;93878.44;4998208;28;20242;-71
2023/10/27 07:13:08;;;;;;;13.55;4.88;;;;;;;17.21;62.33;93874.97;5003206;28;20301;-73
2023/10/27 07:15:34;;;;;;;10.35;5.22;;;;;;;17.44;61.65;93874.31;4995765;28;20271;-73
2023/10/27 07:17:59;;;;;;;13.85;5.15;;;;;;;17.81;60.44;93866.34;5001838;28;20218;-75
2023/10/27 07:20:26;;;;;;;13.35;4.50;;;;;;;17.89;60.33;93900.59;4999661;28;20233;-76
2023/10/27 07:22:51;;;;;;;8.63;4.68;;;;;;;17.94;59.65;93890.09;5002717;28;20230;-71
2023/10/27 07:25:17;;;;;;;15.55;5.60;;;;;;;17.97;59.91;93884.34;4995319;28;20223;-71
2023/10/27 07:27:43;;;;;;;19.27;5.68;;;;;;;18.10;59.70;93879.88;4996022;28;20223;-72
2023/10/27 07:30:09;;;;;;;9.20;4.35;;;;;;;18.14;59.57;93881.84;4996042;28;20278;-71
2023/10/27 07:32:34;;;;;;;12.23;5.38;;;;;;;18.17;59.36;93870.75;4999402;28;20238;-77
2023/10/27 07:35:00;;;;;;;11.02;4.97;;;;;;;18.24;58.89;93852.84;4998337;28;20316;-71
2023/10/27 07:37:25;;;;;;;7.75;4.72;;;;;;;18.36;58.93;93876.81;4998480;28;20226;-70
2023/10/27 07:39:50;;;;;;;9.00;5.25;;;;;;;18.22;59.24;93886.84;4998506;28;20230;-71
2023/10/27 07:42:16;;;;;;;10.20;5.22;;;;;;;18.10;59.60;93898.50;4998870;28;20330;-73
2023/10/27 07:44:41;;;;;;;10.63;5.78;;;;;;;18.11;59.57;93887.63;5000515;28;20210;-75
2023/10/27 07:47:07;;;;;;;14.63;5.65;;;;;;;18.23;59.31;93907.13;5002272;28;20226;-77
2023/10/27 07:49:32;;;;;;;13.85;6.03;;;;;;;18.23;59.20;93891.16;4999922;28;20219;-74
2023/10/27 07:51:58;;;;;;;12.13;6.00;;;;;;;18.33;58.82;93887.09;4995581;28;20231;-77
2023/10/27 07:54:23;;;;;;;17.05;6.45;;;;;;;18.49;58.41;93887.25;4999091;28;20191;-75
2023/10/27 07:56:48;;;;;;;14.13;5.78;;;;;;;18.49;58.39;93891.78;4997353;28;20315;-72
2023/10/27 07:59:14;;;;;;;11.85;6.03;;;;;;;18.56;57.79;93887.19;4998328;28;20254;-71
2023/10/27 08:01:40;;;;;;;13.23;6.10;;;;;;;18.39;58.55;93896.84;4998404;28;20219;-73
2023/10/27 08:04:06;;;;;;;11.73;5.13;;;;;;;18.43;58.14;93909.47;5001797;28;20234;-71
2023/10/27 08:06:32;;;;;;;9.95;4.60;;;;;;;18.41;57.64;93879.59;5000673;28;20208;-77
2023/10/27 08:08:57;;;;;;;10.75;4.95;;;;;;;18.44;57.93;93867.69;4996232;28;20235;-78
2023/10/27 08:11:23;;;;;;;11.30;7.05;;;;;;;18.58;57.44;93863.81;5003237;28;20554;-78
2023/10/27 08:13:48;;;;;;;15.57;6.20;;;;;;;18.74;57.14;93859.66;4996896;28;20222;-74
2023/10/27 08:16:14;;;;;;;14.63;5.88;;;;;;;18.97;56.74;93858.06;4993763;28;20214;-77
2023/10/27 08:18:40;;;;;;;13.43;5.40;;;;;;;19.10;55.87;93844.50;5004543;28;20217;-72
2023/10/27 08:21:05;;;;;;;5.85;3.85;;;;;;;19.18;55.19;93842.28;4995593;28;20210;-72
2023/10/27 08:23:31;;;;;;;11.23;4.40;;;;;;;19.35;55.11;93863.72;4999859;28;20227;-69
2023/10/27 08:25:56;;;;;;;10.05;4.45;;;;;;;19.37;55.01;93858.16;5002899;28;20246;-73
2023/10/27 08:28:22;;;;;;;8.68;4.97;;;;;;;19.55;54.50;93851.88;4997014;28;20226;-75
2023/10/27 08:30:48;;;;;;;10.25;4.63;;;;;;;19.37;54.85;93850.97;4997644;28;20227;-76
2023/10/27 08:33:17;;;;;;;9.75;4.78;;;;;;;19.48;54.10;93845.84;4999966;28;20190;-76
2023/10/27 08:35:42;;;;;;;12.40;7.28;;;;;;;19.12;54.80;93840.56;4982745;28;20216;-75
2023/10/27 08:38:08;;;;;;;9.20;5.28;;;;;;;19.02;55.81;93821.69;4994657;28;20227;-72
2023/10/27 08:40:34;;;;;;;10.05;4.68;;;;;;;19.09;55.05;93842.91;5000624;28;20222;-70
2023/10/27 08:43:02;;;;;;;8.48;4.25;;;;;;;19.17;54.18;93854.00;4996399;28;20227;-72
2023/10/27 08:45:29;;;;;;;8.32;4.13;;;;;;;19.15;53.47;93855.28;4996219;28;20191;-71
2023/10/27 08:47:55;;;;;;;10.23;4.00;;;;;;;18.99;54.28;93842.66;5002739;28;20186;-69
2023/10/27 08:50:21;;;;;;;6.97;3.72;;;;;;;19.10;54.18;93842.66;5001951;28;20240;-71
2023/10/27 08:52:48;;;;;;;7.03;3.00;;;;;;;19.47;53.15;93838.91;4991796;28;20216;-71
2023/10/27 08:55:14;;;;;;;6.13;2.80;;;;;;;19.44;51.45;93831.38;4981981;28;20224;-69
2023/10/27 08:57:41;;;;;;;5.32;2.70;;;;;;;19.60;49.51;93835.97;4974986;28;20331;-68
2023/10/27 09:00:07;;;;;;;8.57;3.10;;;;;;;19.39;50.67;93851.53;4976989;28;20370;-69
2023/10/27 09:02:34;;;;;;;5.30;2.83;;;;;;;19.39;51.26;93853.41;5000825;28;20258;-73
2023/10/27 09:05:08;;;;;;;6.53;2.55;;;;;;;19.55;51.04;93835.88;4997962;28;20242;-71
2023/10/27 09:07:34;;;;;;;3.75;2.45;;;;;;;19.76;49.89;93811.25;4992502;28;20215;-70
2023/10/27 09:10:00;;;;;;;6.32;2.88;;;;;;;19.88;49.86;93827.19;5005226;28;20222;-69
2023/10/27 09:12:29;;;;;;;4.82;2.40;;;;;;;19.79;50.23;93829.44;5000357;28;20188;-68
2023/10/27 09:15:21;;;;;;;7.15;2.20;;;;;;;19.96;47.68;93839.34;5002584;28;20191;-69
2023/10/27 09:17:53;;;;;;;9.18;3.05;;;;;;;19.85;49.77;93829.53;5005706;28;20281;-69
2023/10/27 09:20:21;;;;;;;10.07;3.70;;;;;;;19.79;50.17;93823.31;5002248;28;20233;-69
2023/10/27 09:23:06;;;;;;;7.07;3.67;;;;;;;19.95;50.09;93824.41;4999087;28;20245;-68
2023/10/27 09:25:34;;;;;;;8.27;3.10;;;;;;;20.19;49.33;93825.09;4996836;28;20231;-67
2023/10/27 09:28:03;;;;;;;8.55;2.97;;;;;;;20.31;48.63;93798.34;4998890;28;20249;-69
2023/10/27 09:30:37;;;;;;;4.72;2.33;;;;;;;20.32;48.06;93782.09;4998436;28;20222;-69
2023/10/27 09:33:20;;;;;;;6.75;3.03;;;;;;;20.51;47.93;93803.22;5003160;28;20190;-68
2023/10/27 09:35:47;;;;;;;5.13;2.70;;;;;;;20.48;48.46;93802.63;5006667;28;20250;-67
2023/10/27 09:38:14;;;;;;;6.70;2.47;;;;;;;20.54;47.64;93760.03;5002593;28;20282;-67
2023/10/27 09:40:40;;;;;;;8.23;2.85;;;;;;;20.68;47.00;93743.41;5011418;28;20234;-69
2023/10/27 09:43:11;;;;;;;5.18;2.58;;;;;;;20.70;47.15;93740.50;4990639;28;20219;-68
2023/10/27 09:45:38;;;;;;;6.63;2.92;;;;;;;20.84;47.30;93733.75;4994439;28;20227;-67
2023/10/27 09:48:06;;;;;;;2.60;2.13;;;;;;;20.96;46.95;93763.03;4993792;28;20196;-67
2023/10/27 09:50:32;;;;;;;6.20;2.53;;;;;;;20.91;45.96;93757.63;4993267;28;20220;-68
2023/10/27 09:52:59;;;;;;;4.60;2.13;;;;;;;20.81;46.62;93752.13;4995397;28;20210;-67
2023/10/27 09:55:27;;;;;;;7.15;2.58;;;;;;;20.97;46.82;93753.97;5000037;28;20242;-68
2023/10/27 09:57:52;;;;;;;7.10;2.50;;;;;;;21.07;46.04;93748.75;4988648;28;20219;-68
2023/10/27 10:00:37;;;;;;;6.90;2.25;;;;;;;21.14;45.96;93745.88;4992020;28;20231;-68
2023/10/27 10:03:05;;;;;;;5.60;2.45;;;;;;;21.17;45.61;93749.94;4991476;28;20214;-66
2023/10/27 10:06:12;;;;;;;5.18;2.70;;;;;;;21.21;45.56;93748.38;4988149;28;20630;-67
2023/10/27 10:08:40;;;;;;;5.75;2.50;;;;;;;21.23;45.44;93731.06;5001255;28;20227;-69
2023/10/27 10:11:18;;;;;;;6.32;2.20;;;;;;;21.35;44.60;93738.94;4976837;28;20223;-69
2023/10/27 10:13:48;;;;;;;6.35;2.90;;;;;;;21.30;44.92;93734.34;4989289;28;20233;-71
2023/10/27 10:16:14;;;;;;;3.78;1.90;;;;;;;21.38;43.31;93738.47;4992307;28;20227;-68
2023/10/27 10:18:53;;;;;;;8.20;2.78;;;;;;;20.99;44.25;93733.16;4990552;28;20223;-69
2023/10/27 10:21:33;;;;;;;5.68;2.40;;;;;;;21.18;44.44;93751.56;4992900;28;20187;-70
2023/10/27 10:24:01;;;;;;;5.63;2.33;;;;;;;21.29;43.46;93759.44;4995500;28;20329;-68
2023/10/27 10:27:06;;;;;;;8.98;2.47;;;;;;;21.46;43.87;93769.31;4986598;28;20231;-72
2023/10/27 10:29:35;;;;;;;5.82;2.80;;;;;;;21.51;45.98;93772.84;4977851;28;20223;-71
2023/10/27 10:32:32;;;;;;;3.53;2.45;;;;;;;21.53;44.54;93770.72;4979586;28;20232;-70
2023/10/27 10:35:21;;;;;;;5.55;2.00;;;;;;;21.69;43.77;93765.56;4998526;28;20219;-73
2023/10/27 10:37:46;;;;;;;6.57;2.28;;;;;;;21.69;42.94;93757.53;4982054;28;20258;-73
2023/10/27 10:40:26;;;;;;;4.32;2.20;;;;;;;21.76;44.65;93758.16;4981821;28;20257;-73
2023/10/27 10:43:20;;;;;;;5.50;2.90;;;;;;;21.90;44.24;93750.53;4981226;28;20231;-72
2023/10/27 10:45:51;;;;;;;4.60;2.40;;;;;;;21.96;44.06;93744.16;4983427;28;20218;-72
2023/10/27 10:48:18;;;;;;;7.10;2.63;;;;;;;21.93;43.44;93724.06;4980822;28;20261;-73
2023/10/27 10:50:44;;;;;;;4.82;1.95;;;;;;;21.99;42.30;93738.28;4982332;28;20183;-72
2023/10/27 10:53:16;;;;;;;5.53;2.05;;;;;;;21.92;41.44;93743.88;4991605;28;20237;-73
2023/10/27 10:55:46;;;;;;;2.92;2.10;;;;;;;21.93;42.52;93748.16;4994237;28;20317;-71
2023/10/27 10:58:37;;;;;;;3.50;1.70;;;;;;;22.02;42.07;93741.28;4974229;28;20277;-70
2023/10/27 11:01:04;;;;;;;4.18;2.05;;;;;;;21.99;39.98;93743.66;4990642;28;20258;-72
2023/10/27 11:03:34;;;;;;;3.78;1.75;;;;;;;22.03;39.22;93742.91;4993874;28;20211;-74
2023/10/27 11:06:07;;;;;;;6.28;2.20;;;;;;;21.88;40.74;93732.03;4990872;28;20286;-72
2023/10/27 11:08:40;;;;;;;6.28;2.03;;;;;;;21.93;41.88;93731.28;4987554;28;20302;-69
2023/10/27 11:11:09;;;;;;;3.47;1.90;;;;;;;22.00;41.59;93735.38;4988981;28;20231;-73
2023/10/27 11:13:45;;;;;;;4.68;1.50;;;;;;;21.99;41.55;93720.34;4991484;28;20223;-75
2023/10/27 11:16:16;;;;;;;3.95;2.05;;;;;;;22.00;42.59;93700.59;5002669;28;20313;-72
2023/10/27 11:18:43;;;;;;;5.35;2.72;;;;;;;22.08;41.98;93711.88;5000835;28;20619;-73
2023/10/27 11:21:27;;;;;;;6.13;4.43;;;;;;;22.06;42.06;93732.75;4997187;28;20309;-71
2023/10/27 11:23:52;;;;;;;3.58;2.50;;;;;;;22.11;41.73;93727.44;4996713;28;20249;-74
2023/10/27 11:26:24;;;;;;;2.42;0.95;;;;;;;21.74;39.10;93722.81;4993722;28;20218;-72
2023/10/27 11:28:49;;;;;;;3.53;1.17;;;;;;;21.61;40.04;93715.19;4998960;28;20219;-74
2023/10/27 11:31:26;;;;;;;4.38;1.45;;;;;;;21.80;40.39;93705.75;4996418;28;20278;-75